createdAt,value
2022-09-29T00:01:37.431Z,7.60
2022-09-29T00:04:04.813Z,8.38
2022-09-29T00:06:33.093Z,7.32
2022-09-29T00:09:00.266Z,10.70
2022-09-29T00:11:28.001Z,9.32
2022-09-29T00:13:55.495Z,7.05
2022-09-29T00:16:22.678Z,8.77
2022-09-29T00:18:50.086Z,6.50
2022-09-29T00:21:20.939Z,6.80
2022-09-29T00:23:49.449Z,7.85
2022-09-29T00:26:24.885Z,7.78
2022-09-29T00:28:55.894Z,7.72
2022-09-29T00:31:24.129Z,8.45
2022-09-29T00:33:52.703Z,7.65
2022-09-29T00:36:23.227Z,7.18
2022-09-29T00:38:53.368Z,7.95
2022-09-29T00:41:26.625Z,11.18
2022-09-29T00:44:05.604Z,6.97
2022-09-29T00:46:46.123Z,10.13
2022-09-29T00:49:26.760Z,10.05
2022-09-29T00:52:16.409Z,9.95
2022-09-29T00:54:50.140Z,8.70
2022-09-29T00:57:19.505Z,11.88
2022-09-29T01:00:07.906Z,9.20
2022-09-29T01:02:42.164Z,6.72
2022-09-29T01:05:16.368Z,8.07
2022-09-29T01:07:44.852Z,10.52
2022-09-29T01:10:15.184Z,11.32
2022-09-29T01:12:45.148Z,8.52
2022-09-29T01:15:15.941Z,9.15
2022-09-29T01:17:44.437Z,7.60
2022-09-29T01:20:16.861Z,6.95
2022-09-29T01:23:17.196Z,8.95
2022-09-29T01:26:21.805Z,7.03
2022-09-29T01:29:17.749Z,8.27
2022-09-29T01:31:57.156Z,8.02
2022-09-29T01:35:12.287Z,9.88
2022-09-29T01:38:12.973Z,11.85
2022-09-29T01:40:51.142Z,8.50
2022-09-29T01:43:25.249Z,7.40
2022-09-29T01:45:59.912Z,7.72
2022-09-29T01:48:30.056Z,8.07
2022-09-29T01:51:00.422Z,9.15
2022-09-29T01:53:33.409Z,8.38
2022-09-29T01:56:07.323Z,10.30
2022-09-29T01:58:50.005Z,7.75
2022-09-29T02:01:19.064Z,9.00
2022-09-29T02:03:58.099Z,7.35
2022-09-29T02:06:28.996Z,8.65
2022-09-29T02:08:58.177Z,8.68
2022-09-29T02:11:25.732Z,7.30
2022-09-29T02:14:20.203Z,7.72
2022-09-29T02:16:58.911Z,8.07
2022-09-29T02:19:28.171Z,9.18
2022-09-29T02:21:55.949Z,10.05
2022-09-29T02:24:23.994Z,9.02
2022-09-29T02:26:51.708Z,7.47
2022-09-29T02:29:19.415Z,8.63
2022-09-29T02:31:47.481Z,9.90
2022-09-29T02:34:18.096Z,7.93
2022-09-29T02:37:22.360Z,7.18
2022-09-29T02:39:55.477Z,11.43
2022-09-29T02:42:46.216Z,8.85
2022-09-29T02:45:49.289Z,9.80
2022-09-29T02:49:04.373Z,8.27
2022-09-29T02:51:42.621Z,8.35
2022-09-29T02:54:40.893Z,12.02
2022-09-29T02:57:33.835Z,10.85
2022-09-29T03:00:10.534Z,9.15
2022-09-29T03:02:40.414Z,10.60
2022-09-29T03:05:12.791Z,9.88
2022-09-29T03:07:40.312Z,9.45
2022-09-29T03:10:08.246Z,11.48
2022-09-29T03:12:37.375Z,8.65
2022-09-29T03:15:05.600Z,10.73
2022-09-29T03:17:34.012Z,10.75
2022-09-29T03:20:01.745Z,8.98
2022-09-29T03:22:28.884Z,11.73
2022-09-29T03:24:56.167Z,10.00
2022-09-29T03:27:25.316Z,8.63
2022-09-29T03:29:52.333Z,9.77
2022-09-29T03:32:19.340Z,11.50
2022-09-29T03:34:46.297Z,10.65
2022-09-29T03:37:13.564Z,9.77
2022-09-29T03:39:41.349Z,9.77
2022-09-29T03:42:08.293Z,12.23
2022-09-29T03:44:36.324Z,8.05
2022-09-29T03:47:03.705Z,9.15
2022-09-29T03:49:31.327Z,9.07
2022-09-29T03:52:00.315Z,9.30
2022-09-29T03:54:29.598Z,9.60
2022-09-29T03:56:56.764Z,8.15
2022-09-29T03:59:24.729Z,9.68
2022-09-29T04:01:51.566Z,8.55
2022-09-29T04:04:18.898Z,11.35
2022-09-29T04:06:47.817Z,10.40
2022-09-29T04:09:15.403Z,9.40
2022-09-29T04:11:44.911Z,15.00
2022-09-29T04:14:13.724Z,9.38
2022-09-29T04:16:41.313Z,7.40
2022-09-29T04:19:08.300Z,8.52
2022-09-29T04:21:35.114Z,8.27
2022-09-29T04:24:03.411Z,7.43
2022-09-29T04:26:32.007Z,9.68
2022-09-29T04:28:59.271Z,9.77
2022-09-29T04:31:26.882Z,7.53
2022-09-29T04:33:54.180Z,7.63
2022-09-29T04:36:23.251Z,7.03
2022-09-29T04:38:53.272Z,10.88
2022-09-29T04:41:20.713Z,8.90
2022-09-29T04:43:48.810Z,8.65
2022-09-29T04:46:16.192Z,10.38
2022-09-29T04:48:44.571Z,7.63
2022-09-29T04:51:11.579Z,7.57
2022-09-29T04:53:41.036Z,7.22
2022-09-29T04:56:12.050Z,10.98
2022-09-29T04:58:41.449Z,8.30
2022-09-29T05:01:13.292Z,9.40
2022-09-29T05:03:42.621Z,8.52
2022-09-29T05:06:10.843Z,11.45
2022-09-29T05:08:38.634Z,8.18
2022-09-29T05:11:06.982Z,10.13
2022-09-29T05:13:34.179Z,7.93
2022-09-29T05:16:02.596Z,8.63
2022-09-29T05:18:31.531Z,10.18
2022-09-29T05:23:54.364Z,11.40
2022-09-29T05:26:21.402Z,10.02
2022-09-29T05:28:48.748Z,12.07
2022-09-29T05:31:18.480Z,14.25
2022-09-29T05:33:48.304Z,9.65
2022-09-29T05:36:16.984Z,13.57
2022-09-29T05:38:45.092Z,11.63
2022-09-29T05:41:13.764Z,12.60
2022-09-29T05:43:41.046Z,13.27
2022-09-29T05:46:10.258Z,10.38
2022-09-29T05:48:37.524Z,14.02
2022-09-29T05:51:10.381Z,11.07
2022-09-29T05:53:37.224Z,11.63
2022-09-29T05:56:09.717Z,14.00
2022-09-29T05:58:37.625Z,12.23
2022-09-29T06:01:14.057Z,14.48
2022-09-29T06:03:41.453Z,16.65
2022-09-29T06:06:20.634Z,11.35
2022-09-29T06:08:49.523Z,13.90
2022-09-29T06:11:19.383Z,11.15
2022-09-29T06:13:48.896Z,10.98
2022-09-29T06:16:17.693Z,14.60
2022-09-29T06:18:44.863Z,10.80
2022-09-29T06:21:13.924Z,10.18
2022-09-29T06:23:41.996Z,13.50
2022-09-29T06:26:14.695Z,11.88
2022-09-29T06:28:42.721Z,18.55
2022-09-29T06:31:15.312Z,11.77
2022-09-29T06:33:43.639Z,10.60
2022-09-29T06:36:36.022Z,10.68
2022-09-29T06:39:08.690Z,11.88
2022-09-29T06:41:35.769Z,12.32
2022-09-29T06:44:03.197Z,10.27
2022-09-29T06:46:32.070Z,9.68
2022-09-29T06:49:00.946Z,10.57
2022-09-29T06:51:40.251Z,13.23
2022-09-29T06:54:18.213Z,10.80
2022-09-29T06:56:49.650Z,10.23
2022-09-29T06:59:18.745Z,10.95
2022-09-29T07:01:51.401Z,11.35
2022-09-29T07:04:20.515Z,13.77
2022-09-29T07:06:50.061Z,17.50
2022-09-29T07:09:19.135Z,10.13
2022-09-29T07:11:51.279Z,14.43
2022-09-29T07:14:23.007Z,13.23
2022-09-29T07:16:52.004Z,15.50
2022-09-29T07:19:22.206Z,12.75
2022-09-29T07:21:50.515Z,10.70
2022-09-29T07:24:19.104Z,12.70
2022-09-29T07:26:47.045Z,13.70
2022-09-29T07:29:15.908Z,14.50
2022-09-29T07:31:50.765Z,10.52
2022-09-29T07:34:21.872Z,11.20
2022-09-29T07:36:49.879Z,8.13
2022-09-29T07:39:17.111Z,7.80
2022-09-29T07:41:44.393Z,8.05
2022-09-29T07:44:12.158Z,7.65
2022-09-29T07:46:39.579Z,7.22
2022-09-29T07:49:07.827Z,6.90
2022-09-29T07:51:34.627Z,7.82
2022-09-29T07:54:06.180Z,9.00
2022-09-29T07:56:33.701Z,12.13
2022-09-29T07:59:02.576Z,19.42
2022-09-29T08:01:31.743Z,18.98
2022-09-29T08:04:01.242Z,14.27
2022-09-29T08:06:30.581Z,12.75
2022-09-29T08:09:04.085Z,17.58
2022-09-29T08:11:33.332Z,16.98
2022-09-29T08:14:02.177Z,15.10
2022-09-29T08:16:29.527Z,14.05
2022-09-29T08:18:56.312Z,14.32
2022-09-29T08:21:24.944Z,15.50
2022-09-29T08:23:51.978Z,13.38
2022-09-29T08:26:30.864Z,15.43
2022-09-29T08:29:07.764Z,15.98
2022-09-29T08:31:37.483Z,13.52
2022-09-29T08:34:08.144Z,13.68
2022-09-29T08:36:36.838Z,13.02
2022-09-29T08:39:06.448Z,13.52
2022-09-29T08:41:43.867Z,13.40
2022-09-29T08:44:43.282Z,14.80
2022-09-29T08:47:46.984Z,14.57
2022-09-29T08:50:34.559Z,15.20
2022-09-29T08:53:21.128Z,13.30
2022-09-29T08:56:04.724Z,14.65
2022-09-29T08:58:32.312Z,10.90
2022-09-29T09:01:05.595Z,8.93
2022-09-29T09:06:17.975Z,11.88
2022-09-29T09:09:18.041Z,14.87
2022-09-29T09:12:32.988Z,12.35
2022-09-29T09:15:46.885Z,11.50
2022-09-29T09:18:28.104Z,10.50
2022-09-29T09:21:18.746Z,8.77
2022-09-29T09:24:05.580Z,12.48
2022-09-29T09:26:38.511Z,8.38
2022-09-29T09:29:15.246Z,10.10
2022-09-29T09:32:09.742Z,8.73
2022-09-29T09:34:45.552Z,9.68
2022-09-29T09:37:41.910Z,8.35
2022-09-29T09:40:41.894Z,7.97
2022-09-29T09:43:28.330Z,10.57
2022-09-29T09:46:02.495Z,6.65
2022-09-29T09:48:43.299Z,8.90
2022-09-29T09:51:40.005Z,8.60
2022-09-29T09:54:14.329Z,6.95
2022-09-29T09:59:30.097Z,6.65
2022-09-29T10:01:57.388Z,8.27
2022-09-29T10:04:26.269Z,7.15
2022-09-29T10:06:53.190Z,5.20
2022-09-29T10:09:20.939Z,5.22
2022-09-29T10:11:51.104Z,7.05
2022-09-29T10:14:26.785Z,5.72
2022-09-29T10:17:06.634Z,6.22
2022-09-29T10:19:55.569Z,8.60
2022-09-29T10:22:24.679Z,6.18
2022-09-29T10:25:09.977Z,4.63
2022-09-29T10:27:42.466Z,5.00
2022-09-29T10:30:34.172Z,5.30
2022-09-29T10:33:10.397Z,5.25
2022-09-29T10:35:42.526Z,5.82
2022-09-29T10:38:17.769Z,6.43
2022-09-29T10:40:58.403Z,6.80
2022-09-29T10:43:42.561Z,6.53
2022-09-29T10:46:39.364Z,5.90
2022-09-29T10:49:23.456Z,5.22
2022-09-29T10:52:02.846Z,5.68
2022-09-29T10:54:33.908Z,5.03
2022-09-29T10:57:11.365Z,5.45
2022-09-29T10:59:48.205Z,5.15
2022-09-29T11:02:29.048Z,6.25
2022-09-29T11:05:00.117Z,6.15
2022-09-29T11:07:27.793Z,5.82
2022-09-29T11:09:55.590Z,4.07
2022-09-29T11:12:35.455Z,6.63
2022-09-29T11:15:04.009Z,5.95
2022-09-29T11:17:40.691Z,5.45
2022-09-29T11:20:12.434Z,4.68
2022-09-29T11:23:14.667Z,4.00
2022-09-29T11:26:08.868Z,5.30
2022-09-29T11:29:11.953Z,6.23
2022-09-29T11:32:00.051Z,6.07
2022-09-29T11:35:10.273Z,7.40
2022-09-29T11:38:00.044Z,3.75
2022-09-29T11:41:32.832Z,5.07
2022-09-29T11:44:22.110Z,4.40
2022-09-29T11:47:30.186Z,3.45
2022-09-29T11:50:19.239Z,2.90
2022-09-29T11:53:19.916Z,6.47
2022-09-29T11:56:24.471Z,6.68
2022-09-29T11:59:21.716Z,4.63
2022-09-29T12:02:13.302Z,3.60
2022-09-29T12:05:20.075Z,5.53
2022-09-29T12:08:26.719Z,4.28
2022-09-29T12:11:47.506Z,5.20
2022-09-29T12:14:24.450Z,2.65
2022-09-29T12:16:55.438Z,7.45
2022-09-29T12:19:25.563Z,3.63
2022-09-29T12:21:55.654Z,3.83
2022-09-29T12:24:46.808Z,5.20
2022-09-29T12:27:27.146Z,5.15
2022-09-29T12:30:18.360Z,6.05
2022-09-29T12:33:00.954Z,5.45
2022-09-29T12:36:36.889Z,3.78
2022-09-29T12:39:14.622Z,5.53
2022-09-29T12:41:45.478Z,3.00
2022-09-29T12:44:35.996Z,3.63
2022-09-29T12:47:47.104Z,7.85
2022-09-29T12:50:39.924Z,2.88
2022-09-29T12:55:47.111Z,4.30
2022-09-29T12:58:22.164Z,7.63
2022-09-29T13:00:54.821Z,5.65
2022-09-29T13:03:32.018Z,4.85
2022-09-29T13:06:21.256Z,2.65
2022-09-29T13:09:48.426Z,5.47
2022-09-29T13:13:13.477Z,7.95
2022-09-29T13:15:48.933Z,4.00
2022-09-29T13:25:23.158Z,4.55
2022-09-29T13:27:52.042Z,3.97
2022-09-29T13:30:22.278Z,4.55
2022-09-29T13:32:52.073Z,2.75
2022-09-29T13:35:24.207Z,2.67
2022-09-29T13:38:03.241Z,4.47
2022-09-29T13:40:32.113Z,6.63
2022-09-29T13:43:05.827Z,3.63
2022-09-29T13:45:42.587Z,8.43
2022-09-29T13:48:36.220Z,3.60
2022-09-29T13:51:22.971Z,2.95
2022-09-29T13:54:46.029Z,4.50
2022-09-29T13:57:27.487Z,4.10
2022-09-29T13:59:55.763Z,4.07
2022-09-29T14:02:35.522Z,3.67
2022-09-29T14:05:05.871Z,6.07
2022-09-29T14:07:50.929Z,4.90
2022-09-29T14:10:39.794Z,5.22
2022-09-29T14:13:43.189Z,6.10
2022-09-29T14:16:47.252Z,5.55
2022-09-29T14:19:35.875Z,6.97
2022-09-29T14:22:47.205Z,8.07
2022-09-29T14:25:16.343Z,3.35
2022-09-29T14:27:52.557Z,2.47
2022-09-29T14:30:39.767Z,3.25
2022-09-29T14:33:29.737Z,3.83
2022-09-29T14:36:05.789Z,3.17
2022-09-29T14:38:44.717Z,3.85
2022-09-29T14:41:25.270Z,3.97
2022-09-29T14:43:57.846Z,4.15
2022-09-29T14:47:18.842Z,5.65
2022-09-29T14:50:36.203Z,4.30
2022-09-29T14:53:51.785Z,2.17
2022-09-29T14:57:08.418Z,2.95
2022-09-29T15:00:04.543Z,1.80
2022-09-29T15:02:34.438Z,2.55
2022-09-29T15:05:15.124Z,4.07
2022-09-29T15:07:44.367Z,3.80
2022-09-29T15:10:32.041Z,2.78
2022-09-29T15:13:20.279Z,2.17
2022-09-29T15:15:49.023Z,1.77
2022-09-29T15:18:48.372Z,1.98
2022-09-29T15:21:23.075Z,2.60
2022-09-29T15:24:25.051Z,6.97
2022-09-29T15:26:52.126Z,4.05
2022-09-29T15:29:19.663Z,3.17
2022-09-29T15:31:50.316Z,1.30
2022-09-29T15:34:22.439Z,19.27
2022-09-29T15:36:52.502Z,43.83
2022-09-29T15:39:51.572Z,5.13
2022-09-29T15:42:23.785Z,2.50
2022-09-29T15:45:01.667Z,1.70
2022-09-29T15:47:49.199Z,5.60
2022-09-29T15:50:26.420Z,10.68
2022-09-29T15:52:54.201Z,3.88
2022-09-29T15:55:25.571Z,9.52
2022-09-29T15:57:55.171Z,19.25
2022-09-29T16:00:42.825Z,2.25
2022-09-29T16:03:15.155Z,3.45
2022-09-29T16:05:48.166Z,8.35
2022-09-29T16:08:22.491Z,3.90
2022-09-29T16:13:23.875Z,7.35
2022-09-29T16:15:52.782Z,5.93
2022-09-29T16:18:33.082Z,9.80
2022-09-29T16:21:01.112Z,9.93
2022-09-29T16:23:35.614Z,7.53
2022-09-29T16:26:52.785Z,7.47
2022-09-29T16:29:41.040Z,10.40
2022-09-29T16:32:42.252Z,6.85
2022-09-29T16:35:48.892Z,8.35
2022-09-29T16:38:45.720Z,7.78
2022-09-29T16:41:39.425Z,6.05
2022-09-29T16:44:30.531Z,4.70
2022-09-29T16:47:22.376Z,4.57
2022-09-29T16:50:05.641Z,4.80
2022-09-29T16:52:42.937Z,5.63
2022-09-29T16:55:28.880Z,3.78
2022-09-29T16:58:13.527Z,9.18
2022-09-29T17:00:41.268Z,7.15
2022-09-29T17:03:08.791Z,6.55
2022-09-29T17:05:43.848Z,6.32
2022-09-29T17:08:16.433Z,4.35
2022-09-29T17:10:43.618Z,3.45
2022-09-29T17:13:16.369Z,3.33
2022-09-29T17:15:45.291Z,2.20
2022-09-29T17:18:13.357Z,4.88
2022-09-29T17:20:40.514Z,2.20
2022-09-29T17:23:10.703Z,2.85
2022-09-29T17:25:42.900Z,2.40
2022-09-29T17:28:19.759Z,6.30
2022-09-29T17:30:48.341Z,1.50
2022-09-29T17:33:16.816Z,2.45
2022-09-29T17:35:51.639Z,3.13
2022-09-29T17:38:22.160Z,2.05
2022-09-29T17:41:04.877Z,4.57
2022-09-29T17:43:32.628Z,2.10
2022-09-29T17:46:00.621Z,2.97
2022-09-29T17:48:30.123Z,1.48
2022-09-29T17:50:59.492Z,1.50
2022-09-29T17:53:27.465Z,3.90
2022-09-29T17:55:57.854Z,1.40
2022-09-29T17:58:27.136Z,1.95
2022-09-29T18:01:01.016Z,3.38
2022-09-29T18:03:30.530Z,2.80
2022-09-29T18:05:58.889Z,4.97
2022-09-29T18:08:28.364Z,3.70
2022-09-29T18:10:58.800Z,3.30
2022-09-29T18:13:28.295Z,3.83
2022-09-29T18:15:56.818Z,1.60
2022-09-29T18:18:24.843Z,1.80
2022-09-29T18:20:51.817Z,4.60
2022-09-29T18:23:23.385Z,7.00
2022-09-29T18:25:52.489Z,3.03
2022-09-29T18:28:22.493Z,2.53
2022-09-29T18:30:53.262Z,1.65
2022-09-29T18:33:23.344Z,1.60
2022-09-29T18:35:54.689Z,2.03
2022-09-29T18:38:24.241Z,1.55
2022-09-29T18:40:56.090Z,6.82
2022-09-29T18:43:27.512Z,11.90
2022-09-29T18:45:57.033Z,12.13
2022-09-29T18:48:24.323Z,2.67
2022-09-29T18:50:54.212Z,3.20
2022-09-29T18:53:22.605Z,3.40
2022-09-29T18:55:50.847Z,1.63
2022-09-29T18:58:19.849Z,1.98
2022-09-29T19:00:54.899Z,3.45
2022-09-29T19:03:24.594Z,3.17
2022-09-29T19:05:53.709Z,3.38
2022-09-29T19:08:21.002Z,3.00
2022-09-29T19:10:58.733Z,2.30
2022-09-29T19:13:26.721Z,2.53
2022-09-29T19:15:59.107Z,2.05
2022-09-29T19:18:28.792Z,1.85
2022-09-29T19:20:57.849Z,2.28
2022-09-29T19:23:28.167Z,3.78
2022-09-29T19:25:59.682Z,4.35
2022-09-29T19:28:28.122Z,3.33
2022-09-29T19:31:05.199Z,2.63
2022-09-29T19:33:33.196Z,2.03
2022-09-29T19:36:04.922Z,2.83
2022-09-29T19:38:33.778Z,2.45
2022-09-29T19:41:03.102Z,6.88
2022-09-29T19:43:30.989Z,5.00
2022-09-29T19:45:59.048Z,6.05
2022-09-29T19:48:26.312Z,4.45
2022-09-29T19:51:17.073Z,4.22
2022-09-29T19:53:48.856Z,6.43
2022-09-29T19:56:17.789Z,4.45
2022-09-29T19:58:47.012Z,5.38
2022-09-29T20:01:13.895Z,5.05
2022-09-29T20:03:43.599Z,9.25
2022-09-29T20:06:10.709Z,11.50
2022-09-29T20:08:39.448Z,6.93
2022-09-29T20:11:11.824Z,7.00
2022-09-29T20:13:39.397Z,7.15
2022-09-29T20:16:07.909Z,7.78
2022-09-29T20:18:37.406Z,8.88
2022-09-29T20:21:13.161Z,5.97
2022-09-29T20:23:43.245Z,7.13
2022-09-29T20:26:12.623Z,5.47
2022-09-29T20:28:41.335Z,5.85
2022-09-29T20:31:08.510Z,4.07
2022-09-29T20:33:36.626Z,4.28
2022-09-29T20:36:05.271Z,4.05
2022-09-29T20:38:42.442Z,3.25
2022-09-29T20:41:10.822Z,4.47
2022-09-29T20:43:42.282Z,3.88
2022-09-29T20:46:12.553Z,5.88
2022-09-29T20:48:42.147Z,8.32
2022-09-29T20:51:17.041Z,15.38
2022-09-29T20:54:04.497Z,12.73
2022-09-29T20:56:36.227Z,19.92
2022-09-29T20:59:03.424Z,10.82
2022-09-29T21:01:33.296Z,14.15
2022-09-29T21:04:08.154Z,18.67
2022-09-29T21:06:38.599Z,51.20
2022-09-29T21:09:07.538Z,16.85
2022-09-29T21:11:40.204Z,74.43
2022-09-29T21:14:09.874Z,73.97
2022-09-29T21:16:37.369Z,146.30
2022-09-29T21:19:05.462Z,46.40
2022-09-29T21:21:34.062Z,59.58
2022-09-29T21:24:03.675Z,14.60
2022-09-29T21:26:31.742Z,54.05
2022-09-29T21:29:00.724Z,99.88
2022-09-29T21:31:30.156Z,83.22
2022-09-29T21:34:00.951Z,105.97
2022-09-29T21:36:29.626Z,23.13
2022-09-29T21:38:59.213Z,29.42
2022-09-29T21:41:32.510Z,20.30
2022-09-29T21:44:03.174Z,23.55
2022-09-29T21:46:33.826Z,27.30
2022-09-29T21:49:05.722Z,101.90
2022-09-29T21:51:35.962Z,66.50
2022-09-29T21:54:03.398Z,61.80
2022-09-29T21:56:32.668Z,102.82
2022-09-29T21:58:59.506Z,23.13
2022-09-29T22:01:26.883Z,17.00
2022-09-29T22:03:56.300Z,26.88
2022-09-29T22:06:27.452Z,27.20
2022-09-29T22:08:58.600Z,31.55
2022-09-29T22:11:32.826Z,18.38
2022-09-29T22:14:00.657Z,19.45
2022-09-29T22:16:31.715Z,51.83
2022-09-29T22:21:49.151Z,13.45
2022-09-29T22:24:16.130Z,28.20
2022-09-29T22:26:43.042Z,21.58
2022-09-29T22:29:09.817Z,23.75
2022-09-29T22:31:38.697Z,25.50
2022-09-29T22:34:05.651Z,26.25
2022-09-29T22:36:34.153Z,47.30
2022-09-29T22:39:02.094Z,18.63
2022-09-29T22:41:29.375Z,11.93
2022-09-29T22:43:59.243Z,27.80
2022-09-29T22:46:28.993Z,22.77
2022-09-29T22:48:56.127Z,29.08
2022-09-29T22:51:22.944Z,15.80
2022-09-29T22:53:49.987Z,19.77
2022-09-29T22:56:18.908Z,23.80
2022-09-29T22:58:46.319Z,42.85
2022-09-29T23:01:15.611Z,55.67
2022-09-29T23:03:44.348Z,29.90
2022-09-29T23:06:11.708Z,31.02
2022-09-29T23:08:39.001Z,52.40
2022-09-29T23:11:07.963Z,17.42
2022-09-29T23:13:40.255Z,25.95
2022-09-29T23:16:12.280Z,36.33
2022-09-29T23:18:45.302Z,41.03
2022-09-29T23:21:15.153Z,40.00
2022-09-29T23:23:42.243Z,38.85
2022-09-29T23:26:09.090Z,32.85
2022-09-29T23:28:36.242Z,27.58
2022-09-29T23:31:07.574Z,61.35
2022-09-29T23:33:35.007Z,69.97
2022-09-29T23:36:15.993Z,57.45
2022-09-29T23:39:02.497Z,21.77
2022-09-29T23:41:30.703Z,75.22
2022-09-29T23:44:00.109Z,92.55
2022-09-29T23:46:31.943Z,20.98
2022-09-29T23:49:04.658Z,37.53
2022-09-29T23:51:34.701Z,60.85
2022-09-29T23:54:01.795Z,30.23
2022-09-29T23:56:29.350Z,25.85
2022-09-29T23:58:56.167Z,26.25
